createdAt,value
2023-01-19T00:02:21.289Z,94099.75
2023-01-19T00:04:47.915Z,94099.75
2023-01-19T00:07:15.150Z,94099.00
2023-01-19T00:09:41.729Z,94094.91
2023-01-19T00:12:08.899Z,94098.63
2023-01-19T00:14:35.572Z,94093.63
2023-01-19T00:17:02.100Z,94103.03
2023-01-19T00:19:29.001Z,94094.78
2023-01-19T00:21:55.596Z,94101.94
2023-01-19T00:24:22.125Z,94096.78
2023-01-19T00:26:48.633Z,94106.34
2023-01-19T00:29:15.429Z,94096.81
2023-01-19T00:31:44.731Z,94101.16
2023-01-19T00:34:11.428Z,94099.88
2023-01-19T00:36:38.049Z,94096.00
2023-01-19T00:39:05.024Z,94104.69
2023-01-19T00:41:31.810Z,94101.81
2023-01-19T00:43:58.348Z,94097.78
2023-01-19T00:46:24.834Z,94108.59
2023-01-19T00:48:51.297Z,94110.06
2023-01-19T00:51:17.881Z,94109.06
2023-01-19T00:53:44.500Z,94117.97
2023-01-19T00:56:10.970Z,94110.72
2023-01-19T00:58:38.569Z,94111.97
2023-01-19T01:01:05.415Z,94121.88
2023-01-19T01:03:35.377Z,94117.16
2023-01-19T01:06:02.108Z,94127.03
2023-01-19T01:08:28.907Z,94123.13
2023-01-19T01:10:55.669Z,94126.38
2023-01-19T01:13:23.631Z,94131.06
2023-01-19T01:15:55.172Z,94130.09
2023-01-19T01:18:22.102Z,94130.22
2023-01-19T01:20:48.820Z,94137.38
2023-01-19T01:23:18.643Z,94128.47
2023-01-19T01:25:45.559Z,94133.47
2023-01-19T01:28:12.160Z,94139.16
2023-01-19T01:30:38.831Z,94143.34
2023-01-19T01:33:06.105Z,94136.72
2023-01-19T01:35:32.637Z,94145.63
2023-01-19T01:38:00.057Z,94143.66
2023-01-19T01:40:27.029Z,94146.88
2023-01-19T01:42:53.529Z,94144.47
2023-01-19T01:45:35.633Z,94146.75
2023-01-19T01:48:11.600Z,94147.53
2023-01-19T01:51:00.412Z,94143.03
2023-01-19T01:53:27.726Z,94133.81
2023-01-19T01:55:54.232Z,94147.38
2023-01-19T01:58:21.380Z,94143.00
2023-01-19T02:00:47.971Z,94144.78
2023-01-19T02:03:15.133Z,94150.78
2023-01-19T02:05:42.268Z,94149.94
2023-01-19T02:08:13.203Z,94149.97
2023-01-19T02:10:41.702Z,94149.16
2023-01-19T02:13:08.300Z,94158.53
2023-01-19T02:15:34.815Z,94155.63
2023-01-19T02:18:01.316Z,94154.50
2023-01-19T02:20:30.396Z,94152.91
2023-01-19T02:23:03.556Z,94150.97
2023-01-19T02:25:30.548Z,94142.06
2023-01-19T02:28:00.356Z,94150.63
2023-01-19T02:30:27.929Z,94151.13
2023-01-19T02:32:54.479Z,94154.66
2023-01-19T02:35:21.140Z,94148.84
2023-01-19T02:37:48.144Z,94147.56
2023-01-19T02:40:18.281Z,94154.03
2023-01-19T02:42:52.306Z,94155.63
2023-01-19T02:45:21.396Z,94149.19
2023-01-19T02:47:50.794Z,94154.19
2023-01-19T02:50:35.633Z,94162.44
2023-01-19T02:53:13.105Z,94160.66
2023-01-19T02:55:40.381Z,94153.22
2023-01-19T02:58:16.032Z,94145.91
2023-01-19T03:01:15.245Z,94154.50
2023-01-19T03:03:53.767Z,94147.00
2023-01-19T03:06:29.169Z,94145.88
2023-01-19T03:09:14.557Z,94148.16
2023-01-19T03:11:45.586Z,94151.25
2023-01-19T03:14:15.039Z,94157.25
2023-01-19T03:16:48.292Z,94155.59
2023-01-19T03:19:21.908Z,94157.53
2023-01-19T03:21:52.106Z,94162.84
2023-01-19T03:24:19.493Z,94169.16
2023-01-19T03:26:49.830Z,94167.88
2023-01-19T03:29:17.824Z,94169.19
2023-01-19T03:31:45.752Z,94159.50
2023-01-19T03:34:13.804Z,94162.84
2023-01-19T03:36:43.923Z,94159.47
2023-01-19T03:39:11.448Z,94163.97
2023-01-19T03:41:39.145Z,94171.53
2023-01-19T03:44:05.997Z,94164.44
2023-01-19T03:46:33.222Z,94171.69
2023-01-19T03:49:01.400Z,94176.22
2023-01-19T03:51:28.119Z,94174.94
2023-01-19T03:53:54.590Z,94186.41
2023-01-19T03:56:23.262Z,94182.88
2023-01-19T03:58:50.393Z,94186.84
2023-01-19T04:01:18.320Z,94192.34
2023-01-19T04:03:45.110Z,94185.91
2023-01-19T04:06:11.628Z,94188.22
2023-01-19T04:08:38.182Z,94187.75
2023-01-19T04:11:04.825Z,94185.69
2023-01-19T04:13:31.689Z,94186.00
2023-01-19T04:16:01.899Z,94185.34
2023-01-19T04:18:29.438Z,94191.31
2023-01-19T04:20:55.952Z,94189.84
2023-01-19T04:23:22.620Z,94196.84
2023-01-19T04:25:49.191Z,94195.03
2023-01-19T04:28:15.908Z,94194.59
2023-01-19T04:30:42.385Z,94198.00
2023-01-19T04:33:08.855Z,94199.63
2023-01-19T04:35:35.381Z,94202.50
2023-01-19T04:38:02.334Z,94203.31
2023-01-19T04:40:29.043Z,94210.91
2023-01-19T04:42:55.720Z,94211.25
2023-01-19T04:45:22.196Z,94208.34
2023-01-19T04:47:50.254Z,94210.63
2023-01-19T04:50:16.804Z,94203.19
2023-01-19T04:52:45.517Z,94203.84
2023-01-19T04:55:12.345Z,94202.69
2023-01-19T04:57:38.928Z,94209.50
2023-01-19T05:00:06.359Z,94207.22
2023-01-19T05:02:32.893Z,94210.31
2023-01-19T05:04:59.915Z,94214.00
2023-01-19T05:07:26.679Z,94210.91
2023-01-19T05:09:53.213Z,94216.41
2023-01-19T05:12:20.241Z,94214.31
2023-01-19T05:14:46.825Z,94217.38
2023-01-19T05:17:13.814Z,94214.84
2023-01-19T05:19:40.305Z,94222.75
2023-01-19T05:22:06.851Z,94221.13
2023-01-19T05:24:33.795Z,94223.88
2023-01-19T05:27:00.287Z,94214.16
2023-01-19T05:29:26.759Z,94223.69
2023-01-19T05:31:53.272Z,94221.91
2023-01-19T05:34:19.776Z,94225.66
2023-01-19T05:36:46.228Z,94230.31
2023-01-19T05:39:12.990Z,94234.66
2023-01-19T05:41:39.574Z,94230.63
2023-01-19T05:44:06.059Z,94224.66
2023-01-19T05:46:34.040Z,94225.00
2023-01-19T05:49:00.595Z,94231.59
2023-01-19T05:51:27.382Z,94235.97
2023-01-19T05:53:53.890Z,94235.97
2023-01-19T05:56:20.335Z,94233.06
2023-01-19T05:58:46.799Z,94234.84
2023-01-19T06:01:13.379Z,94231.31
2023-01-19T06:03:40.556Z,94230.97
2023-01-19T06:06:07.526Z,94241.97
2023-01-19T06:08:34.176Z,94237.13
2023-01-19T06:11:00.816Z,94245.22
2023-01-19T06:13:27.797Z,94246.84
2023-01-19T06:15:59.136Z,94242.63
2023-01-19T06:18:26.136Z,94246.03
2023-01-19T06:20:53.364Z,94247.47
2023-01-19T06:23:19.869Z,94251.84
2023-01-19T06:25:46.428Z,94248.94
2023-01-19T06:28:13.006Z,94247.16
2023-01-19T06:30:39.602Z,94253.31
2023-01-19T06:33:06.173Z,94256.41
2023-01-19T06:35:32.644Z,94263.34
2023-01-19T06:37:59.637Z,94261.41
2023-01-19T06:40:26.194Z,94265.44
2023-01-19T06:42:52.660Z,94267.88
2023-01-19T06:45:19.128Z,94261.22
2023-01-19T06:47:47.621Z,94268.19
2023-01-19T06:50:14.244Z,94268.19
2023-01-19T06:52:40.711Z,94272.88
2023-01-19T06:55:07.564Z,94274.97
2023-01-19T06:57:34.170Z,94279.19
2023-01-19T07:00:00.725Z,94288.06
2023-01-19T07:02:28.528Z,94279.63
2023-01-19T07:04:56.246Z,94285.63
2023-01-19T07:07:22.851Z,94284.81
2023-01-19T07:09:49.630Z,94289.13
2023-01-19T07:12:20.391Z,94287.00
2023-01-19T07:14:46.849Z,94282.94
2023-01-19T07:17:13.325Z,94285.84
2023-01-19T07:19:40.096Z,94291.88
2023-01-19T07:22:06.836Z,94296.56
2023-01-19T07:24:33.692Z,94296.03
2023-01-19T07:27:00.323Z,94304.91
2023-01-19T07:29:27.114Z,94305.03
2023-01-19T07:31:53.665Z,94310.22
2023-01-19T07:34:20.949Z,94303.44
2023-01-19T07:36:47.715Z,94309.56
2023-01-19T07:39:15.743Z,94304.41
2023-01-19T07:41:42.287Z,94312.16
2023-01-19T07:44:08.749Z,94314.53
2023-01-19T07:46:35.230Z,94310.31
2023-01-19T07:49:01.838Z,94309.75
2023-01-19T07:51:28.308Z,94311.84
2023-01-19T07:53:54.777Z,94314.13
2023-01-19T07:56:21.241Z,94312.69
2023-01-19T07:58:47.758Z,94310.44
2023-01-19T08:01:14.303Z,94315.13
2023-01-19T08:03:41.263Z,94313.50
2023-01-19T08:06:07.841Z,94321.25
2023-01-19T08:08:34.485Z,94316.88
2023-01-19T08:11:01.037Z,94318.03
2023-01-19T08:13:27.541Z,94323.47
2023-01-19T08:15:54.394Z,94327.72
2023-01-19T08:18:21.460Z,94328.84
2023-01-19T08:20:48.011Z,94330.31
2023-01-19T08:23:14.671Z,94335.47
2023-01-19T08:25:42.725Z,94337.41
2023-01-19T08:28:09.355Z,94340.63
2023-01-19T08:30:36.326Z,94338.03
2023-01-19T08:33:03.114Z,94344.78
2023-01-19T08:35:34.690Z,94353.19
2023-01-19T08:38:01.211Z,94353.16
2023-01-19T08:40:28.964Z,94356.19
2023-01-19T08:43:02.834Z,94352.94
2023-01-19T08:45:29.840Z,94348.53
2023-01-19T08:47:57.263Z,94354.94
2023-01-19T08:50:23.915Z,94351.97
2023-01-19T08:52:50.406Z,94353.47
2023-01-19T08:55:16.991Z,94356.16
2023-01-19T08:57:43.540Z,94354.06
2023-01-19T09:00:10.488Z,94363.63
2023-01-19T09:02:37.351Z,94359.25
2023-01-19T09:05:04.042Z,94357.47
2023-01-19T09:07:32.525Z,94363.38
2023-01-19T09:10:01.807Z,94360.22
2023-01-19T09:12:28.280Z,94366.88
2023-01-19T09:14:54.933Z,94363.22
2023-01-19T09:17:21.812Z,94368.56
2023-01-19T09:19:48.355Z,94367.31
2023-01-19T09:22:15.580Z,94370.47
2023-01-19T09:24:42.080Z,94367.84
2023-01-19T09:27:08.556Z,94366.69
2023-01-19T09:29:35.034Z,94366.34
2023-01-19T09:32:01.508Z,94364.38
2023-01-19T09:34:28.061Z,94367.88
2023-01-19T09:36:54.733Z,94368.94
2023-01-19T09:39:21.201Z,94368.59
2023-01-19T09:41:51.854Z,94368.69
2023-01-19T09:44:29.459Z,94368.22
2023-01-19T09:46:55.992Z,94374.13
2023-01-19T09:49:33.369Z,94371.19
2023-01-19T09:51:59.994Z,94379.25
2023-01-19T09:54:31.643Z,94375.91
2023-01-19T09:56:58.137Z,94381.13
2023-01-19T09:59:32.691Z,94384.50
2023-01-19T10:02:27.133Z,94382.00
2023-01-19T10:05:05.622Z,94381.00
2023-01-19T10:07:35.472Z,94379.66
2023-01-19T10:10:13.117Z,94378.53
2023-01-19T10:12:58.722Z,94382.66
2023-01-19T10:15:59.727Z,94379.50
2023-01-19T10:18:28.037Z,94378.28
2023-01-19T10:21:05.580Z,94369.13
2023-01-19T10:23:44.084Z,94369.81
2023-01-19T10:26:32.750Z,94375.53
2023-01-19T10:29:05.964Z,94371.44
2023-01-19T10:31:34.559Z,94375.72
2023-01-19T10:34:01.084Z,94367.75
2023-01-19T10:36:38.322Z,94378.75
2023-01-19T10:39:05.515Z,94365.53
2023-01-19T10:41:42.680Z,94367.31
2023-01-19T10:44:10.055Z,94368.84
2023-01-19T10:46:44.845Z,94364.47
2023-01-19T10:49:30.396Z,94366.59
2023-01-19T10:51:58.439Z,94367.38
2023-01-19T10:54:27.030Z,94366.22
2023-01-19T10:56:59.198Z,94367.66
2023-01-19T10:59:39.815Z,94363.81
2023-01-19T11:02:14.839Z,94363.81
2023-01-19T11:04:41.545Z,94359.03
2023-01-19T11:07:20.115Z,94356.31
2023-01-19T11:09:47.715Z,94361.28
2023-01-19T11:12:22.132Z,94346.06
2023-01-19T11:14:50.454Z,94348.47
2023-01-19T11:17:22.261Z,94346.22
2023-01-19T11:19:58.378Z,94337.16
2023-01-19T11:22:30.798Z,94339.22
2023-01-19T11:25:01.908Z,94338.22
2023-01-19T11:27:30.460Z,94334.63
2023-01-19T11:30:15.401Z,94323.91
2023-01-19T11:32:41.940Z,94319.53
2023-01-19T11:35:30.584Z,94315.94
2023-01-19T11:38:07.726Z,94309.50
2023-01-19T11:40:35.487Z,94308.69
2023-01-19T11:43:02.330Z,94308.50
2023-01-19T11:45:29.161Z,94309.13
2023-01-19T11:47:55.807Z,94301.44
2023-01-19T11:50:31.848Z,94300.22
2023-01-19T11:53:16.473Z,94295.22
2023-01-19T11:55:57.094Z,94306.69
2023-01-19T11:58:24.379Z,94299.47
2023-01-19T12:01:02.429Z,94293.19
2023-01-19T12:03:32.624Z,94290.41
2023-01-19T12:06:04.649Z,94291.38
2023-01-19T12:08:36.051Z,94283.81
2023-01-19T12:11:03.540Z,94285.16
2023-01-19T12:13:31.332Z,94280.53
2023-01-19T12:16:05.489Z,94284.94
2023-01-19T12:18:45.019Z,94287.63
2023-01-19T12:21:13.757Z,94283.41
2023-01-19T12:24:11.361Z,94274.19
2023-01-19T12:26:56.428Z,94283.13
2023-01-19T12:29:26.221Z,94274.06
2023-01-19T12:32:13.193Z,94270.84
2023-01-19T12:34:43.160Z,94273.94
2023-01-19T12:37:28.091Z,94279.31
2023-01-19T12:39:56.599Z,94275.84
2023-01-19T12:42:23.262Z,94279.25
2023-01-19T12:45:03.346Z,94273.56
2023-01-19T12:47:29.937Z,94272.47
2023-01-19T12:49:58.542Z,94274.75
2023-01-19T12:52:39.520Z,94276.78
2023-01-19T12:55:15.446Z,94269.16
2023-01-19T12:58:02.365Z,94269.97
2023-01-19T13:00:36.244Z,94264.66
2023-01-19T13:03:02.660Z,94268.06
2023-01-19T13:05:33.105Z,94266.31
2023-01-19T13:08:02.838Z,94263.13
2023-01-19T13:11:00.206Z,94258.09
2023-01-19T13:13:28.734Z,94260.19
2023-01-19T13:15:56.169Z,94262.59
2023-01-19T13:18:33.216Z,94261.22
2023-01-19T13:21:09.374Z,94269.66
2023-01-19T13:23:47.650Z,94257.59
2023-01-19T13:26:16.581Z,94262.00
2023-01-19T13:28:45.195Z,94258.38
2023-01-19T13:31:12.891Z,94262.53
2023-01-19T13:33:51.732Z,94261.72
2023-01-19T13:36:36.523Z,94261.16
2023-01-19T13:39:11.290Z,94262.59
2023-01-19T13:41:39.278Z,94258.59
2023-01-19T13:44:18.053Z,94252.97
2023-01-19T13:46:45.814Z,94247.63
2023-01-19T13:49:18.384Z,94254.19
2023-01-19T13:51:44.879Z,94244.56
2023-01-19T13:54:17.907Z,94248.63
2023-01-19T13:56:50.201Z,94255.50
2023-01-19T13:59:19.734Z,94248.88
2023-01-19T14:01:46.734Z,94241.06
2023-01-19T14:04:33.720Z,94240.91
2023-01-19T14:07:06.218Z,94240.06
2023-01-19T14:09:32.760Z,94239.88
2023-01-19T14:12:07.885Z,94241.06
2023-01-19T14:14:36.498Z,94232.63
2023-01-19T14:17:04.787Z,94225.78
2023-01-19T14:19:48.176Z,94233.03
2023-01-19T14:22:14.813Z,94226.41
2023-01-19T14:24:41.397Z,94224.19
2023-01-19T14:27:09.296Z,94223.41
2023-01-19T14:29:37.094Z,94223.00
2023-01-19T14:32:05.370Z,94224.78
2023-01-19T14:34:59.110Z,94228.59
2023-01-19T14:37:36.408Z,94226.78
2023-01-19T14:40:09.104Z,94227.22
2023-01-19T14:42:38.299Z,94221.56
2023-01-19T14:45:08.470Z,94219.38
2023-01-19T14:47:40.086Z,94220.56
2023-01-19T14:50:19.224Z,94216.72
2023-01-19T14:53:15.218Z,94212.50
2023-01-19T14:55:49.978Z,94207.69
2023-01-19T14:58:24.237Z,94203.66
2023-01-19T15:00:51.230Z,94206.28
2023-01-19T15:03:17.774Z,94207.91
2023-01-19T15:05:46.341Z,94207.31
2023-01-19T15:08:20.206Z,94205.88
2023-01-19T15:10:46.796Z,94205.69
2023-01-19T15:13:23.595Z,94200.25
2023-01-19T15:15:50.257Z,94204.03
2023-01-19T15:18:19.811Z,94191.75
2023-01-19T15:20:46.603Z,94184.63
2023-01-19T15:23:13.134Z,94190.47
2023-01-19T15:25:39.650Z,94192.91
2023-01-19T15:28:14.881Z,94193.66
2023-01-19T15:30:41.605Z,94197.09
2023-01-19T15:33:17.347Z,94197.13
2023-01-19T15:35:43.908Z,94203.22
2023-01-19T15:38:10.440Z,94202.81
2023-01-19T15:40:37.162Z,94191.59
2023-01-19T15:43:03.673Z,94189.19
2023-01-19T15:45:58.067Z,94195.22
2023-01-19T15:48:24.831Z,94185.16
2023-01-19T15:50:51.493Z,94181.56
2023-01-19T15:53:21.652Z,94180.34
2023-01-19T15:55:52.560Z,94187.53
2023-01-19T15:58:19.171Z,94180.88
2023-01-19T16:00:45.816Z,94187.09
2023-01-19T16:03:12.352Z,94181.50
2023-01-19T16:05:42.826Z,94174.25
2023-01-19T16:08:13.533Z,94179.63
2023-01-19T16:10:43.567Z,94175.59
2023-01-19T16:13:11.669Z,94179.34
2023-01-19T16:15:39.123Z,94172.28
2023-01-19T16:18:05.964Z,94173.56
2023-01-19T16:20:32.522Z,94170.09
2023-01-19T16:23:13.532Z,94171.69
2023-01-19T16:25:40.829Z,94168.91
2023-01-19T16:28:07.439Z,94171.88
2023-01-19T16:30:34.459Z,94170.03
2023-01-19T16:33:00.989Z,94175.06
2023-01-19T16:35:27.735Z,94158.50
2023-01-19T16:37:54.260Z,94169.03
2023-01-19T16:40:20.830Z,94161.38
2023-01-19T16:42:47.344Z,94158.22
2023-01-19T16:45:16.181Z,94162.63
2023-01-19T16:47:42.693Z,94162.44
2023-01-19T16:50:11.403Z,94153.13
2023-01-19T16:52:38.628Z,94152.22
2023-01-19T16:55:06.165Z,94154.03
2023-01-19T16:57:32.941Z,94155.53
2023-01-19T16:59:59.457Z,94154.81
2023-01-19T17:02:25.937Z,94148.94
2023-01-19T17:04:52.432Z,94154.69
2023-01-19T17:07:19.395Z,94151.09
2023-01-19T17:09:45.952Z,94162.22
2023-01-19T17:12:12.608Z,94155.53
2023-01-19T17:14:39.118Z,94152.56
2023-01-19T17:17:05.675Z,94156.22
2023-01-19T17:19:32.256Z,94160.09
2023-01-19T17:21:58.945Z,94146.28
2023-01-19T17:24:25.493Z,94140.09
2023-01-19T17:26:52.022Z,94145.91
2023-01-19T17:29:18.611Z,94153.66
2023-01-19T17:31:46.333Z,94141.00
2023-01-19T17:34:12.878Z,94152.81
2023-01-19T17:36:39.349Z,94141.88
2023-01-19T17:39:08.388Z,94134.50
2023-01-19T17:41:35.508Z,94133.16
2023-01-19T17:44:04.241Z,94141.75
2023-01-19T17:46:31.468Z,94129.13
2023-01-19T17:49:03.034Z,94132.34
2023-01-19T17:51:30.636Z,94130.56
2023-01-19T17:53:58.222Z,94128.38
2023-01-19T17:56:27.832Z,94127.75
2023-01-19T17:58:54.790Z,94118.97
2023-01-19T18:01:31.857Z,94128.44
2023-01-19T18:03:58.775Z,94131.25
2023-01-19T18:06:25.571Z,94128.66
2023-01-19T18:08:52.152Z,94118.00
2023-01-19T18:11:20.579Z,94119.44
2023-01-19T18:13:48.996Z,94126.13
2023-01-19T18:16:18.168Z,94114.16
2023-01-19T18:18:46.047Z,94113.28
2023-01-19T18:21:14.339Z,94105.72
2023-01-19T18:23:43.788Z,94117.34
2023-01-19T18:26:18.781Z,94108.53
2023-01-19T18:28:45.566Z,94110.09
2023-01-19T18:31:14.490Z,94099.50
2023-01-19T18:33:41.490Z,94087.94
2023-01-19T18:36:08.904Z,94104.69
2023-01-19T18:38:35.535Z,94104.47
2023-01-19T18:41:06.715Z,94082.06
2023-01-19T18:43:33.819Z,94093.22
2023-01-19T18:46:00.432Z,94088.53
2023-01-19T18:48:26.958Z,94094.72
2023-01-19T18:50:53.986Z,94087.63
2023-01-19T18:53:20.918Z,94093.13
2023-01-19T18:55:52.209Z,94088.69
2023-01-19T18:58:21.989Z,94075.06
2023-01-19T19:00:48.911Z,94084.38
2023-01-19T19:03:15.899Z,94077.84
2023-01-19T19:05:44.593Z,94074.69
2023-01-19T19:08:11.693Z,94075.09
2023-01-19T19:10:40.183Z,94084.13
2023-01-19T19:13:06.761Z,94076.72
2023-01-19T19:15:35.177Z,94077.00
2023-01-19T19:18:01.799Z,94070.25
2023-01-19T19:20:28.431Z,94070.25
2023-01-19T19:22:55.694Z,94078.66
2023-01-19T19:25:22.740Z,94074.28
2023-01-19T19:27:52.815Z,94070.88
2023-01-19T19:30:19.462Z,94071.44
2023-01-19T19:32:54.713Z,94069.22
2023-01-19T19:35:21.626Z,94062.13
2023-01-19T19:37:48.969Z,94071.84
2023-01-19T19:40:16.198Z,94065.19
2023-01-19T19:42:45.037Z,94057.25
2023-01-19T19:45:12.190Z,94066.66
2023-01-19T19:47:38.818Z,94068.41
2023-01-19T19:50:05.847Z,94070.16
2023-01-19T19:52:32.338Z,94074.84
2023-01-19T19:54:58.854Z,94074.38
2023-01-19T19:57:25.463Z,94094.66
2023-01-19T19:59:51.969Z,94091.56
2023-01-19T20:02:18.481Z,94086.38
2023-01-19T20:04:45.267Z,94081.75
2023-01-19T20:07:11.826Z,94080.56
2023-01-19T20:09:38.395Z,94085.34
2023-01-19T20:12:05.296Z,94082.22
2023-01-19T20:14:31.851Z,94081.06
2023-01-19T20:16:58.616Z,94085.47
2023-01-19T20:19:25.281Z,94092.81
2023-01-19T20:21:51.840Z,94093.63
2023-01-19T20:24:20.021Z,94075.78
2023-01-19T20:26:50.108Z,94093.75
2023-01-19T20:29:18.928Z,94090.34
2023-01-19T20:31:50.021Z,94085.28
2023-01-19T20:34:18.774Z,94098.75
2023-01-19T20:36:45.447Z,94083.59
2023-01-19T20:39:12.033Z,94087.16
2023-01-19T20:41:39.613Z,94088.91
2023-01-19T20:44:06.172Z,94084.81
2023-01-19T20:46:32.714Z,94093.63
2023-01-19T20:48:59.429Z,94106.47
2023-01-19T20:51:26.123Z,94100.88
2023-01-19T20:53:52.963Z,94102.09
2023-01-19T20:56:19.812Z,94103.41
2023-01-19T20:58:46.516Z,94100.09
2023-01-19T21:01:20.504Z,94103.09
2023-01-19T21:03:47.787Z,94099.81
2023-01-19T21:06:14.865Z,94103.19
2023-01-19T21:08:41.926Z,94111.09
2023-01-19T21:11:09.009Z,94106.88
2023-01-19T21:13:36.421Z,94115.06
2023-01-19T21:16:03.831Z,94120.28
2023-01-19T21:18:30.416Z,94130.25
2023-01-19T21:20:57.369Z,94123.47
2023-01-19T21:23:25.241Z,94114.28
2023-01-19T21:25:57.285Z,94111.38
2023-01-19T21:28:24.541Z,94133.66
2023-01-19T21:30:52.934Z,94132.38
2023-01-19T21:33:20.298Z,94117.47
2023-01-19T21:35:54.456Z,94120.38
2023-01-19T21:38:21.863Z,94125.09
2023-01-19T21:40:48.892Z,94138.50
2023-01-19T21:43:15.615Z,94136.25
2023-01-19T21:45:43.169Z,94128.81
2023-01-19T21:48:09.990Z,94140.13
2023-01-19T21:50:37.153Z,94133.03
2023-01-19T21:53:04.672Z,94146.28
2023-01-19T21:55:31.999Z,94161.59
2023-01-19T21:57:58.505Z,94154.91
2023-01-19T22:00:27.125Z,94164.25
2023-01-19T22:03:03.696Z,94152.47
2023-01-19T22:05:36.374Z,94172.50
2023-01-19T22:08:03.823Z,94168.41
2023-01-19T22:10:30.441Z,94179.03
2023-01-19T22:12:56.958Z,94168.53
2023-01-19T22:15:23.440Z,94178.66
2023-01-19T22:17:49.996Z,94181.44
2023-01-19T22:20:16.768Z,94186.00
2023-01-19T22:22:43.318Z,94190.38
2023-01-19T22:25:09.968Z,94197.28
2023-01-19T22:27:36.561Z,94189.09
2023-01-19T22:30:03.469Z,94200.28
2023-01-19T22:32:29.968Z,94193.00
2023-01-19T22:34:56.479Z,94197.34
2023-01-19T22:37:22.990Z,94196.34
2023-01-19T22:39:49.464Z,94194.38
2023-01-19T22:42:15.929Z,94195.03
2023-01-19T22:44:42.462Z,94187.56
2023-01-19T22:47:09.080Z,94186.03
2023-01-19T22:49:35.671Z,94186.50
2023-01-19T22:52:02.170Z,94181.03
2023-01-19T22:54:28.630Z,94192.03
2023-01-19T22:56:55.115Z,94186.38
2023-01-19T22:59:21.616Z,94193.50
2023-01-19T23:01:49.458Z,94201.09
2023-01-19T23:04:16.185Z,94201.50
2023-01-19T23:06:43.056Z,94207.47
2023-01-19T23:09:14.219Z,94215.06
2023-01-19T23:11:43.580Z,94209.72
2023-01-19T23:14:14.211Z,94202.56
2023-01-19T23:16:40.916Z,94217.59
2023-01-19T23:19:07.482Z,94211.31
2023-01-19T23:21:34.395Z,94211.97
2023-01-19T23:24:02.820Z,94220.03
2023-01-19T23:26:30.167Z,94215.38
2023-01-19T23:29:01.041Z,94217.00
2023-01-19T23:31:30.175Z,94201.22
2023-01-19T23:34:01.605Z,94220.94
2023-01-19T23:36:31.090Z,94202.84
2023-01-19T23:39:00.576Z,94214.16
2023-01-19T23:41:27.853Z,94210.59
2023-01-19T23:43:54.754Z,94214.94
2023-01-19T23:46:21.890Z,94220.63
2023-01-19T23:48:48.863Z,94220.00
2023-01-19T23:51:20.833Z,94222.59
2023-01-19T23:53:47.921Z,94224.84
2023-01-19T23:56:21.919Z,94226.44
2023-01-19T23:58:53.315Z,94230.31
